Terminal Aerodrome Forecast
Issued by NWS Charleston, WV

Current Version | Previous Version | Text Only | Print | Product List | Glossary Off
Versions: 1 2 3 4 5 6 7 8 9 10 11 12 13 14 15 16 17 18 19 20 21 22 23 24 25 26

000
FTUS41 KRLX 241400 AAA
TAFPKB
TAF AMD
KPKB 241403Z 2414/2512 10004KT P6SM SCT035
     FM241700 11005KT P6SM SCT040
     FM250500 00000KT 6SM BR SCT250
     FM250900 13003KT 1SM BR SCT250=

USA.gov is the U.S. government's official web portal to all federal, state and local government web resources and services.